createdAt,value
2018-05-16T00:00:21.726Z,48.87
2018-05-16T00:01:24.995Z,42.78
2018-05-16T00:02:27.486Z,41.10
2018-05-16T00:03:30.720Z,41.22
2018-05-16T00:04:33.966Z,44.80
2018-05-16T00:05:37.242Z,44.45
2018-05-16T00:06:39.855Z,42.33
2018-05-16T00:07:43.104Z,41.85
2018-05-16T00:08:45.575Z,43.92
2018-05-16T00:09:48.052Z,40.08
2018-05-16T00:10:50.531Z,41.35
2018-05-16T00:11:53.004Z,43.22
2018-05-16T00:12:55.476Z,39.88
2018-05-16T00:13:57.963Z,45.72
2018-05-16T00:15:00.441Z,38.55
2018-05-16T00:16:03.003Z,38.10
2018-05-16T00:17:05.476Z,42.70
2018-05-16T00:18:07.948Z,44.65
2018-05-16T00:19:10.419Z,40.15
2018-05-16T00:20:12.879Z,41.13
2018-05-16T00:21:16.107Z,44.70
2018-05-16T00:22:18.608Z,40.47
2018-05-16T00:23:21.092Z,43.95
2018-05-16T00:24:23.556Z,45.10
2018-05-16T00:25:26.046Z,38.55
2018-05-16T00:26:28.534Z,44.25
2018-05-16T00:27:31.029Z,48.50
2018-05-16T00:28:33.495Z,45.12
2018-05-16T00:29:36.811Z,44.72
2018-05-16T00:30:39.416Z,43.13
2018-05-16T00:31:41.891Z,45.55
2018-05-16T00:32:45.164Z,45.53
2018-05-16T00:33:47.636Z,44.80
2018-05-16T00:34:50.117Z,53.20
2018-05-16T00:35:52.580Z,43.70
2018-05-16T00:36:55.188Z,44.05
2018-05-16T00:37:57.681Z,43.25
2018-05-16T00:39:00.185Z,48.97
2018-05-16T00:40:02.825Z,48.72
2018-05-16T00:41:05.361Z,49.50
2018-05-16T00:42:08.604Z,47.08
2018-05-16T00:43:12.000Z,48.65
2018-05-16T00:44:14.464Z,57.15
2018-05-16T00:45:17.713Z,46.17
2018-05-16T00:46:20.622Z,54.75
2018-05-16T00:47:24.642Z,52.97
2018-05-16T00:48:27.149Z,52.67
2018-05-16T00:49:29.629Z,47.78
2018-05-16T00:50:32.092Z,46.80
2018-05-16T00:51:34.616Z,54.33
2018-05-16T00:52:37.104Z,50.45
2018-05-16T00:53:39.669Z,50.05
2018-05-16T00:54:42.177Z,43.72
2018-05-16T00:55:45.406Z,56.03
2018-05-16T00:56:48.652Z,48.00
2018-05-16T00:57:51.127Z,47.50
2018-05-16T00:58:53.596Z,54.45
2018-05-16T00:59:56.099Z,56.33
2018-05-16T01:00:58.624Z,49.63
2018-05-16T01:02:01.097Z,57.08
2018-05-16T01:03:03.596Z,50.17
2018-05-16T01:04:06.040Z,52.22
2018-05-16T01:05:09.288Z,53.05
2018-05-16T01:06:12.523Z,52.88
2018-05-16T01:07:15.753Z,53.95
2018-05-16T01:08:19.105Z,53.35
2018-05-16T01:09:22.339Z,58.22
2018-05-16T01:10:25.743Z,54.20
2018-05-16T01:11:28.196Z,52.38
2018-05-16T01:12:30.683Z,53.80
2018-05-16T01:13:33.184Z,51.45
2018-05-16T01:14:35.656Z,62.95
2018-05-16T01:15:38.123Z,58.95
2018-05-16T01:16:41.391Z,54.13
2018-05-16T01:17:43.899Z,58.25
2018-05-16T01:18:46.903Z,58.95
2018-05-16T01:19:50.158Z,52.72
2018-05-16T01:20:53.372Z,57.55
2018-05-16T01:21:55.850Z,62.62
2018-05-16T01:22:59.081Z,57.88
2018-05-16T01:24:02.320Z,68.70
2018-05-16T01:25:05.554Z,59.47
2018-05-16T01:26:08.797Z,55.83
2018-05-16T01:27:12.031Z,55.85
2018-05-16T01:28:14.516Z,63.83
2018-05-16T01:29:16.988Z,57.60
2018-05-16T01:30:20.224Z,56.35
2018-05-16T01:31:22.708Z,58.78
2018-05-16T01:32:25.661Z,56.35
2018-05-16T01:33:28.138Z,54.63
2018-05-16T01:34:30.639Z,55.85
2018-05-16T01:35:33.885Z,58.78
2018-05-16T01:36:37.128Z,53.67
2018-05-16T01:37:40.387Z,60.58
2018-05-16T01:38:42.870Z,59.60
2018-05-16T01:39:45.345Z,56.72
2018-05-16T01:40:47.821Z,57.78
2018-05-16T01:41:50.399Z,56.37
2018-05-16T01:42:52.884Z,53.58
2018-05-16T01:43:56.121Z,62.88
2018-05-16T01:44:58.688Z,62.03
2018-05-16T01:46:01.158Z,59.85
2018-05-16T01:47:03.638Z,61.75
2018-05-16T01:48:06.115Z,69.72
2018-05-16T01:49:19.481Z,58.30
2018-05-16T01:50:21.941Z,65.12
2018-05-16T01:51:25.183Z,63.42
2018-05-16T01:52:28.418Z,65.40
2018-05-16T01:53:30.892Z,65.28
2018-05-16T01:54:33.365Z,62.42
2018-05-16T01:55:36.605Z,74.22
2018-05-16T01:56:39.253Z,70.75
2018-05-16T01:57:42.487Z,74.43
2018-05-16T01:58:46.293Z,72.05
2018-05-16T01:59:48.756Z,73.22
2018-05-16T02:00:51.979Z,72.50
2018-05-16T02:01:55.261Z,76.65
2018-05-16T02:02:58.497Z,70.40
2018-05-16T02:04:01.741Z,70.85
2018-05-16T02:05:04.967Z,74.35
2018-05-16T02:06:08.240Z,74.82
2018-05-16T02:07:10.718Z,77.07
2018-05-16T02:08:14.031Z,80.28
2018-05-16T02:09:16.527Z,73.40
2018-05-16T02:10:19.064Z,85.90
2018-05-16T02:11:21.540Z,94.40
2018-05-16T02:12:24.228Z,75.50
2018-05-16T02:13:26.763Z,84.65
2018-05-16T02:14:29.261Z,77.75
2018-05-16T02:15:31.844Z,91.15
2018-05-16T02:16:34.529Z,77.75
2018-05-16T02:17:37.092Z,80.50
2018-05-16T02:18:39.595Z,83.25
2018-05-16T02:19:42.092Z,85.95
2018-05-16T02:20:44.624Z,91.00
2018-05-16T02:21:47.165Z,98.90
2018-05-16T02:22:49.629Z,99.82
2018-05-16T02:23:52.208Z,121.60
2018-05-16T02:24:54.720Z,102.05
2018-05-16T02:25:57.229Z,104.10
2018-05-16T02:27:00.472Z,94.30
2018-05-16T02:28:02.964Z,102.32
2018-05-16T02:29:05.460Z,107.63
2018-05-16T02:30:08.017Z,160.88
2018-05-16T02:31:10.550Z,103.45
2018-05-16T02:32:13.028Z,103.03
2018-05-16T02:33:15.529Z,91.00
2018-05-16T02:34:18.794Z,103.43
2018-05-16T02:35:21.296Z,95.90
2018-05-16T02:36:24.720Z,138.88
2018-05-16T02:37:27.253Z,90.85
2018-05-16T02:38:29.716Z,94.62
2018-05-16T02:39:32.220Z,98.12
2018-05-16T02:40:35.499Z,90.20
2018-05-16T02:41:37.981Z,89.28
2018-05-16T02:42:41.240Z,103.38
2018-05-16T02:43:43.732Z,100.75
2018-05-16T02:44:47.736Z,103.53
2018-05-16T02:45:50.278Z,95.12
2018-05-16T02:46:53.538Z,99.75
2018-05-16T02:47:56.232Z,91.90
2018-05-16T02:48:59.589Z,92.75
2018-05-16T02:50:02.136Z,101.97
2018-05-16T02:51:04.660Z,93.30
2018-05-16T02:52:07.132Z,104.75
2018-05-16T02:53:10.374Z,103.57
2018-05-16T02:54:13.638Z,102.20
2018-05-16T02:55:16.181Z,95.55
2018-05-16T02:56:18.689Z,103.87
2018-05-16T02:57:21.940Z,96.40
2018-05-16T02:58:24.500Z,95.55
2018-05-16T02:59:26.992Z,89.72
2018-05-16T03:00:29.628Z,91.85
2018-05-16T03:01:32.157Z,103.72
2018-05-16T03:02:34.658Z,102.45
2018-05-16T03:03:37.909Z,96.18
2018-05-16T03:04:40.653Z,94.45
2018-05-16T03:05:43.140Z,86.00
2018-05-16T03:06:46.464Z,87.75
2018-05-16T03:07:50.394Z,83.55
2018-05-16T03:08:52.935Z,82.68
2018-05-16T03:09:55.417Z,81.53
2018-05-16T03:10:57.975Z,81.28
2018-05-16T03:12:00.458Z,81.78
2018-05-16T03:13:03.722Z,85.00
2018-05-16T03:14:06.335Z,85.62
2018-05-16T03:15:09.565Z,88.47
2018-05-16T03:16:12.803Z,84.35
2018-05-16T03:17:16.057Z,92.60
2018-05-16T03:18:18.516Z,77.03
2018-05-16T03:19:21.020Z,81.45
2018-05-16T03:20:23.535Z,88.53
2018-05-16T03:21:26.045Z,94.35
2018-05-16T03:22:28.559Z,97.22
2018-05-16T03:23:31.077Z,91.80
2018-05-16T03:24:33.546Z,88.25
2018-05-16T03:25:36.089Z,96.37
2018-05-16T03:26:38.572Z,89.05
2018-05-16T03:27:41.833Z,84.93
2018-05-16T03:28:44.467Z,93.57
2018-05-16T03:29:46.944Z,98.68
2018-05-16T03:30:49.437Z,89.40
2018-05-16T03:31:51.955Z,108.45
2018-05-16T03:32:54.443Z,90.47
2018-05-16T03:33:57.733Z,84.68
2018-05-16T03:35:00.211Z,91.70
2018-05-16T03:36:03.477Z,93.40
2018-05-16T03:37:05.967Z,90.05
2018-05-16T03:38:08.420Z,94.32
2018-05-16T03:39:12.622Z,89.60
2018-05-16T03:40:15.089Z,91.50
2018-05-16T03:41:18.356Z,91.40
2018-05-16T03:42:21.153Z,88.45
2018-05-16T03:43:23.610Z,85.70
2018-05-16T03:44:26.144Z,84.40
2018-05-16T03:45:28.642Z,82.82
2018-05-16T03:46:31.248Z,84.47
2018-05-16T03:47:34.066Z,84.10
2018-05-16T03:48:36.528Z,89.32
2018-05-16T03:49:39.836Z,93.37
2018-05-16T03:50:42.431Z,92.97
2018-05-16T03:51:44.945Z,79.70
2018-05-16T03:52:47.580Z,89.50
2018-05-16T03:53:50.097Z,86.47
2018-05-16T03:54:52.590Z,78.82
2018-05-16T03:55:55.069Z,79.90
2018-05-16T03:56:57.552Z,82.88
2018-05-16T04:00:00.062Z,81.00
2018-05-16T04:01:14.480Z,85.85
2018-05-16T04:02:28.735Z,84.07
2018-05-16T04:03:43.184Z,81.47
2018-05-16T04:04:45.708Z,79.65
2018-05-16T04:05:48.172Z,82.20
2018-05-16T04:06:50.664Z,90.40
2018-05-16T04:07:53.128Z,83.72
2018-05-16T04:08:55.600Z,88.60
2018-05-16T04:09:58.153Z,80.32
2018-05-16T04:11:01.416Z,83.05
2018-05-16T04:12:04.690Z,82.18
2018-05-16T04:13:07.164Z,87.30
2018-05-16T04:14:10.443Z,81.60
2018-05-16T04:15:12.998Z,79.22
2018-05-16T04:16:15.466Z,80.10
2018-05-16T04:17:18.961Z,78.03
2018-05-16T04:18:21.439Z,77.57
2018-05-16T04:19:24.042Z,83.32
2018-05-16T04:20:26.932Z,85.60
2018-05-16T04:21:29.496Z,77.50
2018-05-16T04:22:32.022Z,77.93
2018-05-16T04:23:34.587Z,85.00
2018-05-16T04:24:37.136Z,84.90
2018-05-16T04:25:39.660Z,81.72
2018-05-16T04:26:42.205Z,75.20
2018-05-16T04:27:44.687Z,79.37
2018-05-16T04:28:47.947Z,83.05
2018-05-16T04:29:50.516Z,85.20
2018-05-16T04:30:53.768Z,80.78
2018-05-16T04:31:56.337Z,81.22
2018-05-16T04:32:58.818Z,77.07
2018-05-16T04:34:01.288Z,80.75
2018-05-16T04:35:03.755Z,82.10
2018-05-16T04:36:06.242Z,73.22
2018-05-16T04:37:09.466Z,78.50
2018-05-16T04:38:12.705Z,74.97
2018-05-16T04:39:15.969Z,82.20
2018-05-16T04:40:18.443Z,79.30
2018-05-16T04:41:20.925Z,74.80
2018-05-16T04:42:23.388Z,76.68
2018-05-16T04:43:25.842Z,76.62
2018-05-16T04:44:29.084Z,70.78
2018-05-16T04:45:32.328Z,69.53
2018-05-16T04:46:35.568Z,73.25
2018-05-16T04:47:38.821Z,70.35
2018-05-16T04:48:42.062Z,75.78
2018-05-16T04:49:45.331Z,70.03
2018-05-16T04:50:47.843Z,70.57
2018-05-16T04:51:50.421Z,72.07
2018-05-16T04:52:52.928Z,65.15
2018-05-16T04:53:55.535Z,68.00
2018-05-16T04:54:58.032Z,72.32
2018-05-16T04:56:01.288Z,70.30
2018-05-16T04:57:03.773Z,63.97
2018-05-16T04:58:06.236Z,64.70
2018-05-16T04:59:08.708Z,70.53
2018-05-16T05:00:11.185Z,58.65
2018-05-16T05:01:14.424Z,60.72
2018-05-16T05:02:17.686Z,65.40
2018-05-16T05:03:20.232Z,63.33
2018-05-16T05:04:22.704Z,62.00
2018-05-16T05:05:25.948Z,59.78
2018-05-16T05:06:29.215Z,63.95
2018-05-16T05:07:31.697Z,62.78
2018-05-16T05:08:34.167Z,67.03
2018-05-16T05:09:36.691Z,61.30
2018-05-16T05:10:39.272Z,61.97
2018-05-16T05:11:41.839Z,65.55
2018-05-16T05:12:44.293Z,69.30
2018-05-16T05:13:46.934Z,59.75
2018-05-16T05:14:49.405Z,56.67
2018-05-16T05:15:52.678Z,60.00
2018-05-16T05:16:55.188Z,60.22
2018-05-16T05:17:57.743Z,56.37
2018-05-16T05:19:00.223Z,57.55
2018-05-16T05:20:03.482Z,58.95
2018-05-16T05:21:06.019Z,58.92
2018-05-16T05:22:08.513Z,68.40
2018-05-16T05:23:12.588Z,53.00
2018-05-16T05:24:15.100Z,55.60
2018-05-16T05:25:18.335Z,59.38
2018-05-16T05:26:21.897Z,57.55
2018-05-16T05:27:25.234Z,59.60
2018-05-16T05:28:27.772Z,63.55
2018-05-16T05:29:30.397Z,54.03
2018-05-16T05:30:33.624Z,57.80
2018-05-16T05:31:36.883Z,57.33
2018-05-16T05:32:40.291Z,63.42
2018-05-16T05:33:42.855Z,56.50
2018-05-16T05:34:45.362Z,59.80
2018-05-16T05:35:47.842Z,55.05
2018-05-16T05:36:50.428Z,56.15
2018-05-16T05:37:52.868Z,58.80
2018-05-16T05:38:55.327Z,54.95
2018-05-16T05:39:57.869Z,54.90
2018-05-16T05:41:00.354Z,57.65
2018-05-16T05:42:02.857Z,65.05
2018-05-16T05:43:06.219Z,59.20
2018-05-16T05:44:08.761Z,85.53
2018-05-16T05:45:11.245Z,57.88
2018-05-16T05:46:14.512Z,59.38
2018-05-16T05:47:17.189Z,57.15
2018-05-16T05:48:20.887Z,60.08
2018-05-16T05:49:23.381Z,53.47
2018-05-16T05:50:26.612Z,57.25
2018-05-16T05:51:29.097Z,56.03
2018-05-16T05:52:31.573Z,53.87
2018-05-16T05:53:34.040Z,58.42
2018-05-16T05:54:36.632Z,60.10
2018-05-16T05:55:39.479Z,67.45
2018-05-16T05:56:42.995Z,61.22
2018-05-16T05:57:45.713Z,59.53
2018-05-16T05:58:48.274Z,55.72
2018-05-16T05:59:50.899Z,64.10
2018-05-16T06:00:53.376Z,92.00
2018-05-16T06:01:55.907Z,57.95
2018-05-16T06:02:58.378Z,56.90
2018-05-16T06:04:01.656Z,58.55
2018-05-16T06:05:04.124Z,51.33
2018-05-16T06:06:06.591Z,53.72
2018-05-16T06:07:09.865Z,51.47
2018-05-16T06:08:12.332Z,52.10
2018-05-16T06:09:14.793Z,55.20
2018-05-16T06:10:17.281Z,54.42
2018-05-16T06:11:19.762Z,64.95
2018-05-16T06:12:22.235Z,55.15
2018-05-16T06:13:26.314Z,52.33
2018-05-16T06:14:29.555Z,52.65
2018-05-16T06:15:32.810Z,103.72
2018-05-16T06:16:35.276Z,70.85
2018-05-16T06:17:37.776Z,50.53
2018-05-16T06:18:40.257Z,54.80
2018-05-16T06:19:42.869Z,48.72
2018-05-16T06:20:45.240Z,54.67
2018-05-16T06:21:47.807Z,50.83
2018-05-16T06:22:50.300Z,55.67
2018-05-16T06:23:52.912Z,63.47
2018-05-16T06:24:55.455Z,56.17
2018-05-16T06:25:57.897Z,65.87
2018-05-16T06:27:00.488Z,57.22
2018-05-16T06:28:03.748Z,55.05
2018-05-16T06:29:06.271Z,59.78
2018-05-16T06:30:08.761Z,51.45
2018-05-16T06:31:12.014Z,49.25
2018-05-16T06:32:15.285Z,52.35
2018-05-16T06:33:17.800Z,54.50
2018-05-16T06:34:20.268Z,51.08
2018-05-16T06:35:22.732Z,59.05
2018-05-16T06:36:25.978Z,50.55
2018-05-16T06:37:29.236Z,68.22
2018-05-16T06:38:31.691Z,64.40
2018-05-16T06:39:34.974Z,52.80
2018-05-16T06:40:37.519Z,70.90
2018-05-16T06:41:39.992Z,86.72
2018-05-16T06:42:42.485Z,79.72
2018-05-16T06:43:44.957Z,56.65
2018-05-16T06:44:47.420Z,79.60
2018-05-16T06:45:50.014Z,67.37
2018-05-16T06:46:52.452Z,60.42
2018-05-16T06:47:54.935Z,49.28
2018-05-16T06:48:57.429Z,52.17
2018-05-16T06:49:59.962Z,52.90
2018-05-16T06:51:02.432Z,46.00
2018-05-16T06:52:04.905Z,50.67
2018-05-16T06:53:07.420Z,53.72
2018-05-16T06:54:10.678Z,43.05
2018-05-16T06:55:13.161Z,48.22
2018-05-16T06:56:15.729Z,66.45
2018-05-16T06:57:18.199Z,66.65
2018-05-16T06:58:20.669Z,50.55
2018-05-16T06:59:23.120Z,49.03
2018-05-16T07:00:26.493Z,45.03
2018-05-16T07:01:29.000Z,50.80
2018-05-16T07:02:31.467Z,48.28
2018-05-16T07:03:34.708Z,45.03
2018-05-16T07:04:37.979Z,46.70
2018-05-16T07:05:40.452Z,44.05
2018-05-16T07:06:42.946Z,55.95
2018-05-16T07:07:45.453Z,46.30
2018-05-16T07:08:48.692Z,55.65
2018-05-16T07:09:51.942Z,47.03
2018-05-16T07:10:54.423Z,45.75
2018-05-16T07:11:56.908Z,43.15
2018-05-16T07:12:59.386Z,43.63
2018-05-16T07:14:02.650Z,41.53
2018-05-16T07:15:05.188Z,45.60
2018-05-16T07:16:07.667Z,42.97
2018-05-16T07:17:10.148Z,79.75
2018-05-16T07:18:12.655Z,42.50
2018-05-16T07:19:15.841Z,60.10
2018-05-16T07:20:18.308Z,46.92
2018-05-16T07:21:21.619Z,72.12
2018-05-16T07:22:24.102Z,86.65
2018-05-16T07:23:26.633Z,46.40
2018-05-16T07:24:29.110Z,46.65
2018-05-16T07:25:31.652Z,45.75
2018-05-16T07:26:35.245Z,41.03
2018-05-16T07:27:37.875Z,40.50
2018-05-16T07:28:40.463Z,42.28
2018-05-16T07:29:43.695Z,38.60
2018-05-16T07:30:46.942Z,40.08
2018-05-16T07:31:50.182Z,39.15
2018-05-16T07:32:53.411Z,39.40
2018-05-16T07:33:56.689Z,100.20
2018-05-16T07:34:59.160Z,41.53
2018-05-16T07:36:01.621Z,39.50
2018-05-16T07:37:04.884Z,43.05
2018-05-16T07:38:07.374Z,39.15
2018-05-16T07:39:10.629Z,39.03
2018-05-16T07:40:14.065Z,41.72
2018-05-16T07:41:17.382Z,37.90
2018-05-16T07:42:19.912Z,39.47
2018-05-16T07:43:22.441Z,41.95
2018-05-16T07:44:25.758Z,40.17
2018-05-16T07:45:28.221Z,43.53
2018-05-16T07:46:30.773Z,44.20
2018-05-16T07:47:33.297Z,39.60
2018-05-16T07:48:36.619Z,37.67
2018-05-16T07:49:39.319Z,48.45
2018-05-16T07:50:41.971Z,50.63
2018-05-16T07:51:45.953Z,59.45
2018-05-16T07:52:49.352Z,123.62
2018-05-16T07:53:51.945Z,54.95
2018-05-16T07:54:54.415Z,35.13
2018-05-16T07:55:56.998Z,39.65
2018-05-16T07:56:59.517Z,41.53
2018-05-16T07:58:02.027Z,37.80
2018-05-16T07:59:05.286Z,44.22
2018-05-16T08:00:07.747Z,37.65
2018-05-16T08:01:10.211Z,44.55
2018-05-16T08:02:12.715Z,45.20
2018-05-16T08:03:15.359Z,48.50
2018-05-16T08:04:17.794Z,34.58
2018-05-16T08:05:20.258Z,36.58
2018-05-16T08:06:22.727Z,42.90
2018-05-16T08:07:25.214Z,47.40
2018-05-16T08:08:27.680Z,40.00
2018-05-16T08:09:30.165Z,42.38
2018-05-16T08:10:32.632Z,36.97
2018-05-16T08:11:35.868Z,48.47
2018-05-16T08:12:38.463Z,48.60
2018-05-16T08:13:40.944Z,42.58
2018-05-16T08:14:44.186Z,41.55
2018-05-16T08:15:47.434Z,58.22
2018-05-16T08:16:49.967Z,34.55
2018-05-16T08:17:52.518Z,36.65
2018-05-16T08:18:55.034Z,30.45
2018-05-16T08:19:57.537Z,30.30
2018-05-16T08:21:00.106Z,33.10
2018-05-16T08:22:02.576Z,31.45
2018-05-16T08:23:05.843Z,40.65
2018-05-16T08:24:08.315Z,49.17
2018-05-16T08:25:10.789Z,30.75
2018-05-16T08:26:13.268Z,30.90
2018-05-16T08:27:15.729Z,27.37
2018-05-16T08:28:18.278Z,31.00
2018-05-16T08:29:20.804Z,30.52
2018-05-16T08:30:23.284Z,28.67
2018-05-16T08:31:25.867Z,29.27
2018-05-16T08:32:28.368Z,29.87
2018-05-16T08:33:30.921Z,28.60
2018-05-16T08:34:33.413Z,27.90
2018-05-16T08:35:36.668Z,27.90
2018-05-16T08:36:39.218Z,29.55
2018-05-16T08:37:41.724Z,30.85
2018-05-16T08:38:44.296Z,29.40
2018-05-16T08:39:47.131Z,30.37
2018-05-16T08:40:49.614Z,29.40
2018-05-16T08:41:52.076Z,32.38
2018-05-16T08:42:54.629Z,35.95
2018-05-16T08:43:57.020Z,27.67
2018-05-16T08:44:59.525Z,28.33
2018-05-16T08:46:02.039Z,25.58
2018-05-16T08:47:05.261Z,26.92
2018-05-16T08:48:08.510Z,44.33
2018-05-16T08:49:11.037Z,28.92
2018-05-16T08:50:13.523Z,28.90
2018-05-16T08:51:15.989Z,25.52
2018-05-16T08:52:18.469Z,44.90
2018-05-16T08:53:20.937Z,27.35
2018-05-16T08:54:23.462Z,35.25
2018-05-16T08:55:26.153Z,24.90
2018-05-16T08:56:28.629Z,24.65
2018-05-16T08:57:31.098Z,25.00
2018-05-16T08:58:33.570Z,23.75
2018-05-16T08:59:36.046Z,22.20
2018-05-16T09:00:38.536Z,25.00
2018-05-16T09:01:41.039Z,25.75
2018-05-16T09:02:43.504Z,23.73
2018-05-16T09:03:45.986Z,22.98
2018-05-16T09:04:48.549Z,24.67
2018-05-16T09:05:51.016Z,19.02
2018-05-16T09:06:54.300Z,40.05
2018-05-16T09:07:56.775Z,20.77
2018-05-16T09:08:59.240Z,18.45
2018-05-16T09:10:01.758Z,18.45
2018-05-16T09:11:04.361Z,17.85
2018-05-16T09:12:06.997Z,18.90
2018-05-16T09:13:09.640Z,18.70
2018-05-16T09:14:12.242Z,19.87
2018-05-16T09:15:15.169Z,19.08
2018-05-16T09:16:18.478Z,16.30
2018-05-16T09:17:21.035Z,19.05
2018-05-16T09:18:23.511Z,18.00
2018-05-16T09:19:26.048Z,16.50
2018-05-16T09:20:28.571Z,16.15
2018-05-16T09:21:31.065Z,19.12
2018-05-16T09:22:34.307Z,16.95
2018-05-16T09:23:37.590Z,16.23
2018-05-16T09:24:40.071Z,16.05
2018-05-16T09:25:43.319Z,18.73
2018-05-16T09:26:46.557Z,17.12
2018-05-16T09:27:49.812Z,17.23
2018-05-16T09:28:52.279Z,25.73
2018-05-16T09:29:54.776Z,20.95
2018-05-16T09:30:57.258Z,17.62
2018-05-16T09:31:59.807Z,17.00
2018-05-16T09:33:03.059Z,25.15
2018-05-16T09:34:05.581Z,20.20
2018-05-16T09:35:08.595Z,17.15
2018-05-16T09:36:11.131Z,15.68
2018-05-16T09:37:14.356Z,15.52
2018-05-16T09:38:16.867Z,24.48
2018-05-16T09:39:19.877Z,13.80
2018-05-16T09:40:22.437Z,15.43
2018-05-16T09:41:24.907Z,16.70
2018-05-16T09:42:27.388Z,25.80
2018-05-16T09:43:29.854Z,16.27
2018-05-16T09:44:32.317Z,18.73
2018-05-16T09:45:34.828Z,16.65
2018-05-16T09:46:37.272Z,14.75
2018-05-16T09:47:39.858Z,16.50
2018-05-16T09:48:42.340Z,16.02
2018-05-16T09:49:44.920Z,21.27
2018-05-16T09:50:47.473Z,15.05
2018-05-16T09:51:49.964Z,17.15
2018-05-16T09:52:52.453Z,17.30
2018-05-16T09:53:54.956Z,15.90
2018-05-16T09:54:57.453Z,14.75
2018-05-16T09:55:59.975Z,13.98
2018-05-16T09:57:02.468Z,17.80
2018-05-16T09:58:05.733Z,14.85
2018-05-16T09:59:08.232Z,19.48
2018-05-16T10:00:11.513Z,15.25
2018-05-16T10:01:13.976Z,15.75
2018-05-16T10:02:16.489Z,21.27
2018-05-16T10:03:18.952Z,14.35
2018-05-16T10:04:21.495Z,19.37
2018-05-16T10:05:24.032Z,15.05
2018-05-16T10:06:27.172Z,15.43
2018-05-16T10:07:29.702Z,15.60
2018-05-16T10:08:32.224Z,18.48
2018-05-16T10:09:34.769Z,21.60
2018-05-16T10:10:37.303Z,15.07
2018-05-16T10:11:39.777Z,14.80
2018-05-16T10:12:42.388Z,14.87
2018-05-16T10:13:44.900Z,16.30
2018-05-16T10:14:48.167Z,22.42
2018-05-16T10:15:51.478Z,13.52
2018-05-16T10:16:54.024Z,14.52
2018-05-16T10:17:56.496Z,16.20
2018-05-16T10:18:59.011Z,12.88
2018-05-16T10:20:01.517Z,12.30
2018-05-16T10:21:04.812Z,12.65
2018-05-16T10:22:07.286Z,14.02
2018-05-16T10:23:10.602Z,13.45
2018-05-16T10:24:14.588Z,12.63
2018-05-16T10:25:17.853Z,14.02
2018-05-16T10:26:20.364Z,13.88
2018-05-16T10:27:23.692Z,14.95
2018-05-16T10:28:26.951Z,13.25
2018-05-16T10:29:29.445Z,15.60
2018-05-16T10:30:32.050Z,14.07
2018-05-16T10:31:34.590Z,11.38
2018-05-16T10:32:37.069Z,10.50
2018-05-16T10:33:39.559Z,18.60
2018-05-16T10:34:42.069Z,9.68
2018-05-16T10:35:45.357Z,9.80
2018-05-16T10:36:47.877Z,12.20
2018-05-16T10:37:51.100Z,12.70
2018-05-16T10:38:54.425Z,10.18
2018-05-16T10:39:57.002Z,9.55
2018-05-16T10:40:59.468Z,11.45
2018-05-16T10:42:01.945Z,12.85
2018-05-16T10:43:04.440Z,13.52
2018-05-16T10:44:06.916Z,11.02
2018-05-16T10:45:09.406Z,12.10
2018-05-16T10:46:12.816Z,9.07
2018-05-16T10:47:15.304Z,8.40
2018-05-16T10:48:17.867Z,11.35
2018-05-16T10:49:20.319Z,13.62
2018-05-16T10:50:23.544Z,10.02
2018-05-16T10:51:26.020Z,13.38
2018-05-16T10:52:28.512Z,9.07
2018-05-16T10:53:31.794Z,11.48
2018-05-16T10:54:34.280Z,10.38
2018-05-16T10:55:37.544Z,10.25
2018-05-16T10:56:40.042Z,9.70
2018-05-16T10:57:42.500Z,9.57
2018-05-16T10:58:44.989Z,9.05
2018-05-16T10:59:47.443Z,8.75
2018-05-16T11:00:49.939Z,10.45
2018-05-16T11:01:52.531Z,8.35
2018-05-16T11:02:55.017Z,11.68
2018-05-16T11:03:58.289Z,14.45
2018-05-16T11:05:00.763Z,15.25
2018-05-16T11:06:04.013Z,8.70
2018-05-16T11:07:07.259Z,12.77
2018-05-16T11:08:10.572Z,9.82
2018-05-16T11:09:13.028Z,10.38
2018-05-16T11:10:16.278Z,14.52
2018-05-16T11:11:19.529Z,10.70
2018-05-16T11:12:22.009Z,10.38
2018-05-16T11:13:24.520Z,9.55
2018-05-16T11:14:27.001Z,11.55
2018-05-16T11:15:29.489Z,10.55
2018-05-16T11:16:31.958Z,12.32
2018-05-16T11:17:34.428Z,9.65
2018-05-16T11:18:36.945Z,16.85
2018-05-16T11:19:39.431Z,9.82
2018-05-16T11:20:41.882Z,7.95
2018-05-16T11:21:44.379Z,10.90
2018-05-16T11:22:47.360Z,8.98
2018-05-16T11:23:49.828Z,7.93
2018-05-16T11:24:53.093Z,8.20
2018-05-16T11:25:55.601Z,16.15
2018-05-16T11:26:58.841Z,8.25
2018-05-16T11:28:01.339Z,10.50
2018-05-16T11:29:03.923Z,12.05
2018-05-16T11:30:06.437Z,12.45
2018-05-16T11:31:08.948Z,11.25
2018-05-16T11:32:11.500Z,11.90
2018-05-16T11:33:13.952Z,10.63
2018-05-16T11:34:16.417Z,9.65
2018-05-16T11:35:19.676Z,11.80
2018-05-16T11:36:22.865Z,10.48
2018-05-16T11:37:25.347Z,11.07
2018-05-16T11:38:27.798Z,8.90
2018-05-16T11:39:30.304Z,8.80
2018-05-16T11:40:32.798Z,9.23
2018-05-16T11:41:36.028Z,12.18
2018-05-16T11:42:39.273Z,12.15
2018-05-16T11:43:42.667Z,9.68
2018-05-16T11:44:45.170Z,9.77
2018-05-16T11:45:47.619Z,10.98
2018-05-16T11:46:50.094Z,9.10
2018-05-16T11:47:53.352Z,14.02
2018-05-16T11:48:56.107Z,25.73
2018-05-16T11:49:58.520Z,15.95
2018-05-16T11:51:01.004Z,26.30
2018-05-16T11:52:03.567Z,26.00
2018-05-16T11:53:06.040Z,11.77
2018-05-16T11:54:08.613Z,40.15
2018-05-16T11:55:11.116Z,13.32
2018-05-16T11:56:14.357Z,33.80
2018-05-16T11:57:16.868Z,20.00
2018-05-16T11:58:19.336Z,40.88
2018-05-16T11:59:21.891Z,30.73
2018-05-16T12:00:25.093Z,22.65
2018-05-16T12:01:28.321Z,18.90
2018-05-16T12:02:31.561Z,17.08
2018-05-16T12:03:34.835Z,14.50
2018-05-16T12:04:37.308Z,13.20
2018-05-16T12:05:39.810Z,19.65
2018-05-16T12:06:42.284Z,12.23
2018-05-16T12:07:45.541Z,20.55
2018-05-16T12:08:48.784Z,22.20
2018-05-16T12:09:51.264Z,8.98
2018-05-16T12:10:53.736Z,15.00
2018-05-16T12:11:56.266Z,9.55
2018-05-16T12:12:59.518Z,9.57
2018-05-16T12:14:02.039Z,9.90
2018-05-16T12:15:04.552Z,13.75
2018-05-16T12:16:07.012Z,11.32
2018-05-16T12:17:09.516Z,15.80
2018-05-16T12:18:11.969Z,11.88
2018-05-16T12:19:14.440Z,11.70
2018-05-16T12:20:17.678Z,12.35
2018-05-16T12:21:20.950Z,11.75
2018-05-16T12:22:23.473Z,12.37
2018-05-16T12:23:26.009Z,9.48
2018-05-16T12:24:28.522Z,11.15
2018-05-16T12:25:31.539Z,9.70
2018-05-16T12:26:34.987Z,10.45
2018-05-16T12:27:38.251Z,9.15
2018-05-16T12:28:40.713Z,9.90
2018-05-16T12:29:43.169Z,10.52
2018-05-16T12:30:45.651Z,18.02
2018-05-16T12:31:48.132Z,8.57
2018-05-16T12:32:51.420Z,17.90
2018-05-16T12:33:54.255Z,8.70
2018-05-16T12:34:56.720Z,7.75
2018-05-16T12:35:59.176Z,7.85
2018-05-16T12:37:01.704Z,8.35
2018-05-16T12:38:04.187Z,8.38
2018-05-16T12:39:07.442Z,11.30
2018-05-16T12:40:11.310Z,9.63
2018-05-16T12:41:14.557Z,8.35
2018-05-16T12:42:17.096Z,8.13
2018-05-16T12:43:19.576Z,10.30
2018-05-16T12:44:22.029Z,7.70
2018-05-16T12:45:24.492Z,7.97
2018-05-16T12:46:27.081Z,8.75
2018-05-16T12:47:29.452Z,10.45
2018-05-16T12:48:31.960Z,8.45
2018-05-16T12:49:34.570Z,7.43
2018-05-16T12:50:37.134Z,7.90
2018-05-16T12:51:39.635Z,10.57
2018-05-16T12:52:42.118Z,10.88
2018-05-16T12:53:45.366Z,7.60
2018-05-16T12:54:48.590Z,7.78
2018-05-16T12:55:51.204Z,7.30
2018-05-16T12:56:53.709Z,7.70
2018-05-16T12:57:56.195Z,12.93
2018-05-16T12:58:58.680Z,8.45
2018-05-16T13:00:01.257Z,8.32
2018-05-16T13:01:03.740Z,8.43
2018-05-16T13:02:06.208Z,12.00
2018-05-16T13:03:08.691Z,9.40
2018-05-16T13:04:11.146Z,11.25
2018-05-16T13:05:13.648Z,10.02
2018-05-16T13:06:16.201Z,8.60
2018-05-16T13:07:18.696Z,9.30
2018-05-16T13:08:21.189Z,8.65
2018-05-16T13:09:25.306Z,8.20
2018-05-16T13:10:27.860Z,15.80
2018-05-16T13:11:30.328Z,8.40
2018-05-16T13:12:32.799Z,8.18
2018-05-16T13:13:35.336Z,8.45
2018-05-16T13:14:37.824Z,9.15
2018-05-16T13:15:41.061Z,8.52
2018-05-16T13:16:43.877Z,8.35
2018-05-16T13:17:46.367Z,12.45
2018-05-16T13:18:49.056Z,7.00
2018-05-16T13:19:52.339Z,7.50
2018-05-16T13:20:54.824Z,9.95
2018-05-16T13:21:57.390Z,7.78
2018-05-16T13:22:59.895Z,10.75
2018-05-16T13:24:02.416Z,7.15
2018-05-16T13:25:04.958Z,9.75
2018-05-16T13:26:07.417Z,9.05
2018-05-16T13:27:09.959Z,9.05
2018-05-16T13:28:12.527Z,7.32
2018-05-16T13:29:15.014Z,8.90
2018-05-16T13:30:17.480Z,9.13
2018-05-16T13:31:20.511Z,8.00
2018-05-16T13:32:22.974Z,7.15